Time;durP1;ratioP1;P1;durP2;ratioP2;P2;SDS_P1;SDS_P2;PMS_P1;PMS_P2;Temp;Humidity;BMP_temperature;BMP_pressure;BME280_temperature;BME280_humidity;BME280_pressure;Samples;Min_cycle;Max_cycle;Signal;HPM_P1;HPM_P2
2022/09/04 00:01:01;;;;;;;25.65;15.50;;;15.50;99.90;;;;;;5038971;28;20495;-77
2022/09/04 00:03:49;;;;;;;22.48;14.88;;;15.50;99.90;;;;;;5057520;28;20040;-74
2022/09/04 00:06:25;;;;;;;23.65;14.20;;;15.50;99.90;;;;;;5057306;28;20399;-77
2022/09/04 00:09:07;;;;;;;24.95;14.45;;;15.50;99.90;;;;;;5072006;28;20053;-77
2022/09/04 00:11:37;;;;;;;26.55;14.73;;;15.50;99.90;;;;;;5057348;28;20041;-75
2022/09/04 00:14:12;;;;;;;22.45;14.63;;;15.80;99.90;;;;;;5055053;28;20479;-74
2022/09/04 00:16:54;;;;;;;23.70;14.10;;;15.50;99.90;;;;;;5056503;28;20052;-77
2022/09/04 00:19:39;;;;;;;25.33;14.35;;;15.50;99.90;;;;;;5056394;28;20525;-76
2022/09/04 00:22:20;;;;;;;28.30;14.85;;;15.50;99.90;;;;;;5055789;28;20040;-76
2022/09/04 00:25:18;;;;;;;26.08;15.23;;;15.40;99.90;;;;;;5056087;28;20061;-75
2022/09/04 00:27:51;;;;;;;26.98;15.48;;;15.40;99.90;;;;;;5018741;28;20071;-74
2022/09/04 00:30:20;;;;;;;26.98;15.73;;;15.40;99.90;;;;;;5056876;28;20052;-76
2022/09/04 00:33:29;;;;;;;27.35;16.40;;;15.40;99.90;;;;;;5055733;28;20045;-77
2022/09/04 00:36:02;;;;;;;27.73;17.67;;;15.40;99.90;;;;;;4979842;28;20058;-76
2022/09/04 00:38:40;;;;;;;23.48;16.85;;;15.30;99.90;;;;;;5046229;28;20049;-75
2022/09/04 00:41:31;;;;;;;31.90;18.20;;;15.30;99.90;;;;;;5055324;28;20490;-77
2022/09/04 00:44:26;;;;;;;29.77;18.88;;;15.30;99.90;;;;;;5057007;28;20048;-75
2022/09/04 00:47:21;;;;;;;32.15;19.70;;;15.20;99.90;;;;;;5054654;28;20049;-76
2022/09/04 00:50:14;;;;;;;29.20;18.92;;;15.20;99.90;;;;;;5056511;28;20459;-73
2022/09/04 00:53:14;;;;;;;33.03;19.40;;;15.20;99.90;;;;;;5055586;28;20041;-75
2022/09/04 00:55:44;;;;;;;32.15;20.35;;;15.20;99.90;;;;;;5055417;28;20052;-75
2022/09/04 00:58:46;;;;;;;33.42;21.23;;;15.10;99.90;;;;;;5056775;28;20067;-74
2022/09/04 01:01:21;;;;;;;31.02;20.95;;;15.20;99.90;;;;;;5055442;28;20041;-74
2022/09/04 01:04:27;;;;;;;30.23;21.52;;;15.20;99.90;;;;;;5056429;28;20051;-76
2022/09/04 01:07:21;;;;;;;36.70;23.20;;;15.20;99.90;;;;;;5054984;28;20052;-77
2022/09/04 01:10:18;;;;;;;41.17;24.50;;;15.20;99.90;;;;;;5055178;28;20467;-75
2022/09/04 01:13:24;;;;;;;36.85;24.05;;;15.20;99.90;;;;;;5055153;28;20048;-76
2022/09/04 01:16:04;;;;;;;39.60;28.83;;;15.20;99.90;;;;;;4994937;28;20057;-76
2022/09/04 01:18:58;;;;;;;40.95;27.70;;;15.20;99.90;;;;;;5045741;28;20049;-75
2022/09/04 01:21:58;;;;;;;43.47;30.77;;;15.20;99.90;;;;;;5054749;28;20482;-74
2022/09/04 01:24:53;;;;;;;48.35;32.92;;;15.20;99.90;;;;;;5054794;28;20055;-77
2022/09/04 01:27:28;;;;;;;55.33;35.40;;;15.30;99.90;;;;;;5054704;28;20048;-75
2022/09/04 01:30:10;;;;;;;54.50;36.15;;;15.30;99.90;;;;;;5055855;28;20057;-77
2022/09/04 01:33:20;;;;;;;53.17;37.88;;;15.30;99.90;;;;;;5055594;28;20471;-78
2022/09/04 01:35:50;;;;;;;55.17;37.03;;;15.30;99.90;;;;;;5055917;28;20052;-75
2022/09/04 01:38:32;;;;;;;53.22;38.85;;;15.30;99.90;;;;;;5054593;28;20057;-74
2022/09/04 01:41:12;;;;;;;65.68;41.42;;;15.30;99.90;;;;;;5053617;28;20049;-76
2022/09/04 01:43:41;;;;;;;60.30;41.22;;;15.40;99.90;;;;;;5055264;28;20371;-75
2022/09/04 01:46:39;;;;;;;63.30;43.35;;;15.30;99.90;;;;;;5055175;28;20060;-78
2022/09/04 01:49:50;;;;;;;69.30;43.55;;;15.30;99.90;;;;;;5054757;28;20363;-75
2022/09/04 01:52:35;;;;;;;69.28;43.72;;;15.30;99.90;;;;;;4962105;28;20070;-76
2022/09/04 01:55:25;;;;;;;68.65;45.35;;;15.30;99.90;;;;;;4976808;28;20046;-77
2022/09/04 01:58:10;;;;;;;71.15;46.80;;;15.30;99.90;;;;;;5042686;28;20048;-75
2022/09/04 02:00:48;;;;;;;79.55;50.53;;;15.30;99.90;;;;;;5053096;28;20056;-75
2022/09/04 02:03:32;;;;;;;90.30;51.50;;;15.20;99.90;;;;;;5054633;28;20052;-77
2022/09/04 02:06:33;;;;;;;85.35;53.95;;;15.20;99.90;;;;;;5054274;28;20060;-76
2022/09/04 02:09:29;;;;;;;86.82;55.80;;;15.20;99.90;;;;;;5040540;28;20048;-75
2022/09/04 02:12:15;;;;;;;94.10;57.70;;;15.20;99.90;;;;;;5054810;28;20062;-75
2022/09/04 02:15:11;;;;;;;88.50;55.78;;;15.20;99.90;;;;;;5053661;28;20045;-75
2022/09/04 02:17:45;;;;;;;89.68;57.08;;;15.20;99.90;;;;;;5053716;28;20045;-74
2022/09/04 02:20:23;;;;;;;97.07;60.95;;;15.20;99.90;;;;;;5053267;28;20045;-76
2022/09/04 02:23:23;;;;;;;100.63;61.85;;;15.20;99.90;;;;;;5054066;28;20060;-77
2022/09/04 02:26:16;;;;;;;109.22;62.35;;;15.20;99.90;;;;;;5054294;28;20052;-76
2022/09/04 02:29:24;;;;;;;108.72;61.30;;;15.20;99.90;;;;;;5052037;28;20498;-75
2022/09/04 02:32:11;;;;;;;115.82;68.10;;;15.20;99.90;;;;;;5053652;28;20049;-74
2022/09/04 02:34:47;;;;;;;107.93;65.20;;;15.30;99.90;;;;;;5053450;28;20044;-76
2022/09/04 02:37:31;;;;;;;117.63;69.93;;;15.30;99.90;;;;;;5036773;28;20037;-75
2022/09/04 02:40:12;;;;;;;119.93;70.07;;;15.30;99.90;;;;;;4999909;28;20384;-76
2022/09/04 02:42:43;;;;;;;133.10;71.63;;;15.30;99.90;;;;;;5017701;28;20041;-76
2022/09/04 02:45:21;;;;;;;135.00;73.00;;;15.30;99.90;;;;;;5034596;28;20056;-77
2022/09/04 02:48:17;;;;;;;136.07;75.13;;;15.30;99.90;;;;;;5000343;28;20072;-74
2022/09/04 02:51:25;;;;;;;139.57;79.45;;;15.30;99.90;;;;;;5034683;28;20045;-75
2022/09/04 02:54:01;;;;;;;139.82;77.22;;;15.20;99.90;;;;;;5033281;28;20045;-75
2022/09/04 02:56:54;;;;;;;142.82;79.75;;;15.30;99.90;;;;;;5034395;28;20049;-76
2022/09/04 02:59:54;;;;;;;141.57;77.03;;;15.30;99.90;;;;;;5017770;28;20049;-76
2022/09/04 03:02:29;;;;;;;133.75;71.80;;;15.20;99.90;;;;;;5017382;28;20042;-76
2022/09/04 03:05:19;;;;;;;147.15;77.82;;;15.20;99.90;;;;;;5034347;28;20050;-76
2022/09/04 03:07:57;;;;;;;152.40;76.45;;;15.20;99.90;;;;;;5033172;28;20054;-78
2022/09/04 03:10:38;;;;;;;155.00;78.25;;;15.20;99.90;;;;;;5034792;28;20045;-75
2022/09/04 03:13:24;;;;;;;156.95;79.93;;;15.10;99.90;;;;;;5017379;28;20065;-75
2022/09/04 03:16:03;;;;;;;169.73;81.10;;;15.10;99.90;;;;;;5017799;28;20045;-76
2022/09/04 03:19:08;;;;;;;174.68;87.15;;;15.00;99.90;;;;;;5001112;28;20487;-77
2022/09/04 03:21:52;;;;;;;180.80;85.93;;;15.00;99.90;;;;;;5036356;28;20056;-76
2022/09/04 03:24:29;;;;;;;176.07;86.57;;;15.00;99.90;;;;;;5021263;28;20053;-75
2022/09/04 03:27:11;;;;;;;178.98;90.07;;;15.00;99.90;;;;;;5036278;28;20497;-74
2022/09/04 03:29:42;;;;;;;169.30;83.95;;;15.00;99.90;;;;;;5020749;28;20050;-76
2022/09/04 03:32:40;;;;;;;179.95;87.88;;;14.90;99.90;;;;;;5037832;28;20061;-77
2022/09/04 03:35:11;;;;;;;190.60;87.80;;;14.90;99.90;;;;;;5036711;28;20037;-77
2022/09/04 03:37:48;;;;;;;198.25;90.97;;;14.90;99.90;;;;;;5038093;28;20061;-75
2022/09/04 03:40:41;;;;;;;196.27;92.22;;;14.80;99.90;;;;;;5019431;28;20037;-75
2022/09/04 03:43:35;;;;;;;205.18;95.65;;;14.80;99.90;;;;;;5015154;28;20054;-75
2022/09/04 03:47:00;;;;;;;214.50;102.53;;;14.80;99.90;;;;;;5037776;28;20061;-76
2022/09/04 03:49:47;;;;;;;233.15;104.10;;;14.90;99.90;;;;;;4961161;28;20476;-76
2022/09/04 03:52:35;;;;;;;214.43;100.53;;;15.10;99.90;;;;;;4977468;28;20061;-74
2022/09/04 03:55:33;;;;;;;205.48;96.78;;;15.10;99.90;;;;;;5023080;28;20056;-75
2022/09/04 03:58:22;;;;;;;204.32;97.75;;;15.20;99.90;;;;;;5020055;28;20052;-76
2022/09/04 04:01:31;;;;;;;200.52;96.60;;;15.30;99.90;;;;;;5036449;28;20050;-77
2022/09/04 04:04:34;;;;;;;186.52;89.05;;;15.40;99.90;;;;;;5021336;28;20060;-75
2022/09/04 04:07:20;;;;;;;172.48;85.85;;;15.40;99.90;;;;;;4983123;28;20041;-74
2022/09/04 04:10:12;;;;;;;180.50;88.75;;;15.30;99.90;;;;;;5037373;28;20056;-75
2022/09/04 04:13:01;;;;;;;191.70;94.32;;;15.30;99.90;;;;;;5004076;28;20052;-76
2022/09/04 04:15:41;;;;;;;196.18;95.38;;;15.30;99.90;;;;;;5018867;28;20048;-76
2022/09/04 04:18:33;;;;;;;193.68;93.10;;;15.40;99.90;;;;;;5037174;28;20052;-77
2022/09/04 04:21:10;;;;;;;193.07;93.50;;;15.50;99.90;;;;;;5019294;28;20045;-75
2022/09/04 04:23:46;;;;;;;196.90;94.20;;;15.50;99.90;;;;;;5019641;28;20041;-76
2022/09/04 04:26:28;;;;;;;180.25;87.70;;;15.60;99.90;;;;;;5003086;28;20057;-75
2022/09/04 04:29:24;;;;;;;192.18;90.93;;;15.70;99.90;;;;;;5018523;28;20472;-78
2022/09/04 04:32:12;;;;;;;177.43;85.57;;;15.70;99.90;;;;;;5019411;28;20475;-74
2022/09/04 04:34:54;;;;;;;173.75;87.18;;;15.90;99.90;;;;;;5018188;28;20388;-76
2022/09/04 04:37:36;;;;;;;162.65;81.68;;;16.00;99.90;;;;;;5003417;28;20049;-75
2022/09/04 04:40:24;;;;;;;151.43;74.93;;;16.10;99.90;;;;;;5035781;28;20048;-74
2022/09/04 04:43:30;;;;;;;134.48;69.10;;;16.10;99.90;;;;;;5019358;28;20060;-76
2022/09/04 04:46:16;;;;;;;124.88;63.72;;;16.20;99.90;;;;;;4990064;28;20053;-77
2022/09/04 04:48:56;;;;;;;116.60;62.45;;;16.10;99.90;;;;;;5035498;28;20105;-74
2022/09/04 04:52:14;;;;;;;126.18;61.85;;;16.20;99.90;;;;;;5036544;28;20041;-77
2022/09/04 04:55:13;;;;;;;114.93;59.72;;;16.10;99.90;;;;;;5018128;28;20049;-76
2022/09/04 04:58:04;;;;;;;114.80;60.05;;;16.10;99.90;;;;;;5036218;28;20384;-77
2022/09/04 05:00:41;;;;;;;119.03;59.28;;;16.10;99.90;;;;;;5001759;28;20380;-76
2022/09/04 05:03:22;;;;;;;117.85;60.20;;;16.10;99.90;;;;;;5036455;28;20357;-76
2022/09/04 05:06:14;;;;;;;104.68;56.85;;;16.20;99.90;;;;;;5018793;28;20045;-74
2022/09/04 05:08:51;;;;;;;107.25;57.17;;;16.20;99.90;;;;;;5009017;28;20046;-76
2022/09/04 05:11:56;;;;;;;105.07;55.40;;;16.30;99.90;;;;;;4999407;28;20064;-75
2022/09/04 05:14:33;;;;;;;98.07;53.80;;;15.90;99.90;;;;;;4997663;28;20045;-75
2022/09/04 05:17:27;;;;;;;100.72;54.53;;;16.20;99.90;;;;;;4999260;28;20053;-77
2022/09/04 05:20:13;;;;;;;94.85;51.67;;;15.80;99.90;;;;;;4981588;28;20050;-77
2022/09/04 05:22:59;;;;;;;91.65;49.67;;;16.30;99.90;;;;;;4998951;28;20472;-76
2022/09/04 05:25:39;;;;;;;92.53;50.65;;;16.20;99.90;;;;;;4999641;28;20056;-76
2022/09/04 05:28:09;;;;;;;89.22;49.13;;;16.30;99.90;;;;;;5015266;28;20050;-76
2022/09/04 05:31:04;;;;;;;84.03;48.47;;;16.30;99.90;;;;;;4982702;28;20049;-76
2022/09/04 05:34:01;;;;;;;88.85;45.15;;;16.30;99.90;;;;;;4998233;28;20214;-75
2022/09/04 05:36:50;;;;;;;91.25;47.90;;;16.30;99.90;;;;;;5015967;28;20037;-77
2022/09/04 05:39:35;;;;;;;90.13;47.58;;;16.20;99.90;;;;;;5015695;28;20038;-76
2022/09/04 05:42:22;;;;;;;86.40;47.45;;;16.20;99.90;;;;;;5014571;28;20053;-75
2022/09/04 05:45:02;;;;;;;91.30;49.13;;;16.30;99.90;;;;;;4966400;28;20062;-78
2022/09/04 05:47:48;;;;;;;93.85;47.45;;;16.20;99.90;;;;;;4997525;28;20061;-74
2022/09/04 05:50:45;;;;;;;80.70;46.95;;;16.20;99.90;;;;;;4998929;28;20046;-76
2022/09/04 05:53:13;;;;;;;;;;;16.20;99.90;;;;;;4981920;28;20488;-76
2022/09/04 05:56:05;;;;;;;86.57;44.22;;;16.20;99.90;;;;;;4998432;28;19925;-75
2022/09/04 05:58:35;;;;;;;78.90;44.92;;;16.20;99.90;;;;;;4982724;28;20041;-74
2022/09/04 06:01:39;;;;;;;84.43;45.85;;;16.30;99.90;;;;;;4981209;28;20050;-74
2022/09/04 06:04:33;;;;;;;78.80;44.65;;;16.30;99.90;;;;;;5015206;28;20088;-74
2022/09/04 06:07:26;;;;;;;74.72;43.13;;;16.30;99.90;;;;;;5014240;28;20058;-75
2022/09/04 06:10:03;;;;;;;76.95;42.80;;;16.30;99.90;;;;;;4982136;28;20049;-75
2022/09/04 06:12:53;;;;;;;69.75;40.60;;;16.30;99.90;;;;;;4998226;28;20056;-76
2022/09/04 06:15:45;;;;;;;71.22;39.47;;;16.40;99.90;;;;;;4980948;28;20483;-76
2022/09/04 06:18:22;;;;;;;59.95;36.35;;;16.40;99.90;;;;;;4997740;28;20058;-77
2022/09/04 06:21:20;;;;;;;61.92;36.00;;;16.50;99.90;;;;;;4980881;28;20366;-77
2022/09/04 06:23:50;;;;;;;51.00;28.88;;;16.60;99.90;;;;;;4981592;28;20037;-76
2022/09/04 06:26:36;;;;;;;45.80;27.40;;;16.60;99.90;;;;;;4998116;28;20046;-74
2022/09/04 06:29:31;;;;;;;42.13;23.50;;;16.70;99.90;;;;;;5015222;28;20050;-76
2022/09/04 06:32:08;;;;;;;34.75;19.50;;;16.70;99.90;;;;;;5015144;28;20461;-75
2022/09/04 06:35:01;;;;;;;32.17;15.65;;;16.80;99.90;;;;;;4964689;28;20045;-75
2022/09/04 06:37:45;;;;;;;27.48;14.57;;;16.90;99.90;;;;;;5016895;28;20057;-77
2022/09/04 06:40:37;;;;;;;21.73;13.13;;;17.00;99.90;;;;;;5016971;28;20060;-75
2022/09/04 06:43:23;;;;;;;22.20;12.10;;;17.10;99.90;;;;;;5033994;28;20042;-76
2022/09/04 06:46:05;;;;;;;19.30;10.13;;;17.20;99.90;;;;;;5018206;28;20064;-74
2022/09/04 06:48:59;;;;;;;19.00;9.23;;;17.30;99.90;;;;;;5031666;28;20072;-76
2022/09/04 06:51:27;;;;;;;23.10;9.57;;;17.30;99.90;;;;;;5033823;28;20056;-76
2022/09/04 06:54:03;;;;;;;20.20;8.20;;;17.40;99.90;;;;;;5016703;28;20053;-78
2022/09/04 06:56:55;;;;;;;20.50;7.82;;;17.50;99.90;;;;;;5038629;28;20058;-77
2022/09/04 06:59:48;;;;;;;18.17;7.47;;;17.70;99.90;;;;;;5038137;28;20132;-76
2022/09/04 07:02:44;;;;;;;13.07;5.72;;;17.80;99.90;;;;;;5037995;28;20046;-74
2022/09/04 07:05:36;;;;;;;15.35;5.85;;;17.80;99.90;;;;;;5037143;28;20060;-73
2022/09/04 07:08:34;;;;;;;17.10;5.60;;;17.90;99.90;;;;;;5037074;28;20049;-75
2022/09/04 07:11:36;;;;;;;14.30;5.30;;;18.00;99.90;;;;;;5038355;28;20049;-73
2022/09/04 07:14:16;;;;;;;11.27;4.63;;;18.20;99.90;;;;;;5036015;28;20060;-74
2022/09/04 07:17:05;;;;;;;19.88;4.88;;;18.30;99.90;;;;;;5004513;28;20049;-74
2022/09/04 07:20:15;;;;;;;19.77;4.80;;;18.40;99.90;;;;;;5036761;28;20045;-76
2022/09/04 07:23:21;;;;;;;15.23;4.95;;;18.50;99.90;;;;;;5032603;28;20060;-75
2022/09/04 07:26:09;;;;;;;11.70;4.32;;;18.50;99.90;;;;;;5004672;28;20052;-77
2022/09/04 07:29:15;;;;;;;11.50;3.67;;;18.60;99.90;;;;;;5016237;28;20054;-77
2022/09/04 07:31:48;;;;;;;15.45;4.07;;;18.70;99.90;;;;;;5036548;28;20049;-78
2022/09/04 07:34:26;;;;;;;14.48;4.18;;;18.70;99.90;;;;;;5036698;28;20483;-75
2022/09/04 07:37:03;;;;;;;11.25;3.83;;;18.70;99.90;;;;;;5053256;28;20053;-77
2022/09/04 07:39:53;;;;;;;12.45;4.00;;;18.70;99.90;;;;;;5022925;28;20468;-75
2022/09/04 07:42:54;;;;;;;16.25;3.72;;;18.70;99.90;;;;;;5000576;28;20053;-76
2022/09/04 07:45:53;;;;;;;12.82;3.58;;;18.70;99.90;;;;;;5016887;28;20056;-77
2022/09/04 07:48:46;;;;;;;10.20;3.30;;;18.80;99.90;;;;;;4999063;28;20057;-75
2022/09/04 07:51:21;;;;;;;9.93;3.42;;;18.80;99.90;;;;;;4968274;28;20049;-75
2022/09/04 07:54:22;;;;;;;10.70;3.33;;;18.90;99.90;;;;;;5016606;28;20061;-74
2022/09/04 07:57:06;;;;;;;10.63;3.50;;;18.90;99.90;;;;;;5017453;28;20046;-76
2022/09/04 07:59:52;;;;;;;11.25;3.88;;;19.00;99.90;;;;;;5017563;28;20380;-77
2022/09/04 08:02:35;;;;;;;10.38;3.10;;;19.10;99.90;;;;;;5004917;28;20049;-75
2022/09/04 08:05:26;;;;;;;13.32;3.30;;;19.20;99.90;;;;;;5019993;28;20514;-75
2022/09/04 08:08:23;;;;;;;16.45;3.25;;;19.30;99.90;;;;;;5018704;28;20037;-76
2022/09/04 08:11:25;;;;;;;11.40;3.15;;;19.40;99.90;;;;;;5037747;28;20053;-73
2022/09/04 08:14:09;;;;;;;9.85;3.13;;;19.50;99.90;;;;;;5020379;28;20061;-75
2022/09/04 08:17:01;;;;;;;16.83;3.28;;;19.60;99.90;;;;;;5037128;28;20052;-77
2022/09/04 08:19:45;;;;;;;12.65;2.80;;;19.60;99.90;;;;;;5019905;28;20375;-76
2022/09/04 08:22:21;;;;;;;16.70;3.00;;;19.70;99.90;;;;;;5035889;28;20380;-76
2022/09/04 08:25:21;;;;;;;13.30;2.90;;;19.90;99.90;;;;;;5020670;28;20041;-76
2022/09/04 08:28:16;;;;;;;19.55;3.05;;;19.90;99.90;;;;;;4979573;28;20460;-73
2022/09/04 08:30:53;;;;;;;18.23;2.85;;;20.00;99.90;;;;;;5036739;28;20460;-76
2022/09/04 08:33:44;;;;;;;13.60;2.53;;;20.00;99.90;;;;;;5036024;28;20053;-77
2022/09/04 08:36:37;;;;;;;10.75;2.55;;;20.20;99.90;;;;;;5019690;28;20049;-75
2022/09/04 08:39:10;;;;;;;10.98;2.58;;;20.20;99.90;;;;;;5038829;28;20052;-76
2022/09/04 08:41:56;;;;;;;10.15;2.13;;;20.30;99.90;;;;;;5054833;28;20059;-73
2022/09/04 08:45:03;;;;;;;13.02;2.65;;;20.40;99.90;;;;;;5055189;28;20375;-73
2022/09/04 08:48:00;;;;;;;10.30;2.38;;;20.50;99.90;;;;;;5054762;28;20056;-76
2022/09/04 08:50:38;;;;;;;11.82;2.75;;;20.70;99.90;;;;;;5055786;28;20375;-74
2022/09/04 08:53:42;;;;;;;7.47;1.92;;;20.80;99.90;;;;;;5055731;28;20063;-73
2022/09/04 08:56:20;;;;;;;12.05;2.50;;;20.80;99.90;;;;;;5056380;28;20052;-79
2022/09/04 08:59:12;;;;;;;8.00;2.05;;;20.90;99.90;;;;;;5055860;28;20045;-74
2022/09/04 09:02:09;;;;;;;12.45;2.70;;;20.90;99.90;;;;;;5055349;28;20045;-76
2022/09/04 09:05:07;;;;;;;13.03;2.17;;;21.00;99.90;;;;;;5035805;28;20037;-75
2022/09/04 09:08:26;;;;;;;12.82;2.58;;;21.10;99.90;;;;;;5054317;28;20052;-76
2022/09/04 09:11:26;;;;;;;16.10;3.05;;;21.30;99.90;;;;;;5025428;28;20056;-77
2022/09/04 09:14:20;;;;;;;12.27;2.85;;;21.40;99.90;;;;;;5055717;28;20051;-73
2022/09/04 09:17:12;;;;;;;17.55;2.47;;;21.60;99.90;;;;;;5056095;28;20049;-76
2022/09/04 09:19:51;;;;;;;11.90;2.65;;;21.70;99.90;;;;;;5055426;28;20060;-73
2022/09/04 09:22:34;;;;;;;14.30;2.85;;;21.80;99.90;;;;;;5055116;28;20040;-74
2022/09/04 09:25:20;;;;;;;11.65;2.42;;;21.40;99.50;;;;;;5055327;28;20044;-74
2022/09/04 09:28:09;;;;;;;15.60;2.50;;;21.90;99.90;;;;;;5055051;28;20064;-73
2022/09/04 09:31:08;;;;;;;11.52;2.50;;;21.90;99.50;;;;;;5055071;28;20055;-75
2022/09/04 09:33:48;;;;;;;14.73;2.65;;;21.90;99.60;;;;;;5055107;28;20056;-77
2022/09/04 09:36:33;;;;;;;13.57;2.42;;;22.00;99.80;;;;;;5054970;28;20041;-73
2022/09/04 09:39:28;;;;;;;12.50;2.40;;;22.10;98.80;;;;;;5054568;28;20045;-75
2022/09/04 09:42:12;;;;;;;31.15;4.38;;;22.10;99.40;;;;;;5054652;28;20053;-72
2022/09/04 09:44:41;;;;;;;16.70;2.50;;;22.20;99.40;;;;;;5055933;28;20052;-74
2022/09/04 09:47:09;;;;;;;21.25;2.95;;;22.30;99.50;;;;;;5053758;28;20060;-73
2022/09/04 09:49:57;;;;;;;21.25;4.25;;;22.30;99.30;;;;;;5055131;28;20075;-75
2022/09/04 09:52:47;;;;;;;9.18;2.13;;;22.40;99.10;;;;;;5056072;28;20367;-74
2022/09/04 09:55:36;;;;;;;12.88;2.35;;;21.80;98.50;;;;;;5054955;28;20443;-75
2022/09/04 09:58:43;;;;;;;10.27;2.13;;;22.60;98.10;;;;;;5054853;28;20056;-74
2022/09/04 10:01:24;;;;;;;8.85;2.38;;;22.60;97.60;;;;;;5053309;28;20049;-76
2022/09/04 10:04:27;;;;;;;15.10;2.25;;;22.70;97.00;;;;;;5055828;28;20052;-72
2022/09/04 10:07:38;;;;;;;13.40;2.63;;;22.70;97.20;;;;;;5054601;28;20128;-75
2022/09/04 10:10:15;;;;;;;12.90;2.58;;;23.00;95.60;;;;;;5037712;28;20056;-73
2022/09/04 10:12:42;;;;;;;10.95;2.20;;;23.00;96.80;;;;;;5055327;28;20044;-75
2022/09/04 10:15:26;;;;;;;14.40;2.53;;;23.00;96.20;;;;;;5053357;28;20060;-73
2022/09/04 10:18:23;;;;;;;15.68;2.30;;;23.00;96.00;;;;;;5051024;28;20451;-73
2022/09/04 10:21:11;;;;;;;14.05;2.17;;;23.10;95.50;;;;;;5053433;28;20048;-77
2022/09/04 10:24:04;;;;;;;12.80;2.20;;;23.00;95.20;;;;;;5054282;28;20345;-79
2022/09/04 10:27:02;;;;;;;10.50;1.90;;;23.00;94.60;;;;;;5037085;28;20045;-79
2022/09/04 10:29:47;;;;;;;11.18;2.47;;;23.00;94.40;;;;;;5054017;28;20049;-75
2022/09/04 10:32:55;;;;;;;10.20;2.10;;;23.00;94.30;;;;;;5054046;28;20045;-80
2022/09/04 10:35:49;;;;;;;12.63;2.30;;;23.00;94.00;;;;;;5053777;28;20068;-78
2022/09/04 10:38:34;;;;;;;12.40;2.20;;;23.00;94.00;;;;;;5053155;28;20057;-78
2022/09/04 10:41:34;;;;;;;13.02;2.65;;;22.90;94.50;;;;;;5036790;28;20379;-80
2022/09/04 10:44:16;;;;;;;9.77;2.38;;;23.00;94.30;;;;;;5037159;28;20079;-76
2022/09/04 10:47:13;;;;;;;10.30;2.33;;;23.10;94.60;;;;;;5054355;28;20044;-74
2022/09/04 10:50:11;;;;;;;9.82;2.05;;;23.20;94.10;;;;;;5054405;28;20060;-74
2022/09/04 10:53:19;;;;;;;10.50;2.30;;;23.30;93.70;;;;;;5053655;28;20053;-73
2022/09/04 10:56:00;;;;;;;10.63;1.95;;;23.40;93.70;;;;;;5053774;28;20052;-74
2022/09/04 10:58:39;;;;;;;15.07;2.03;;;23.50;93.50;;;;;;5037429;28;20372;-73
2022/09/04 11:01:22;;;;;;;13.30;2.58;;;23.60;93.10;;;;;;5053541;28;20056;-75
2022/09/04 11:03:59;;;;;;;12.80;2.03;;;23.70;93.20;;;;;;5054549;28;20483;-75
2022/09/04 11:07:13;;;;;;;15.52;2.33;;;23.70;93.10;;;;;;5054459;28;20044;-75
2022/09/04 11:10:13;;;;;;;11.52;2.40;;;23.60;91.70;;;;;;5037253;28;20045;-74
2022/09/04 11:12:52;;;;;;;7.85;2.42;;;23.70;91.70;;;;;;5034739;28;20045;-77
2022/09/04 11:15:41;;;;;;;12.00;2.20;;;23.70;92.30;;;;;;5053319;28;20045;-74
2022/09/04 11:18:23;;;;;;;;;;;23.80;91.60;;;;;;5053913;28;20060;-77
2022/09/04 11:21:19;;;;;;;13.00;2.13;;;23.80;91.20;;;;;;5053229;28;20244;-73
2022/09/04 11:24:08;;;;;;;7.68;2.20;;;23.90;91.20;;;;;;5053284;28;20060;-75
2022/09/04 11:26:46;;;;;;;12.00;2.30;;;24.00;91.60;;;;;;5052357;28;20049;-74
2022/09/04 11:29:41;;;;;;;10.80;2.35;;;24.10;91.50;;;;;;5053445;28;20351;-77
2022/09/04 11:32:41;;;;;;;10.38;2.42;;;24.20;91.30;;;;;;5054181;28;20522;-74
2022/09/04 11:35:18;;;;;;;13.52;2.28;;;24.30;91.10;;;;;;5035720;28;20044;-74
2022/09/04 11:38:27;;;;;;;10.10;2.25;;;24.30;91.30;;;;;;5053613;28;20045;-76
2022/09/04 11:41:16;;;;;;;8.68;2.47;;;24.50;91.00;;;;;;4987237;28;20057;-74
2022/09/04 11:44:09;;;;;;;16.40;2.88;;;24.60;90.70;;;;;;5037653;28;20056;-76
2022/09/04 11:47:02;;;;;;;9.15;2.00;;;24.70;90.70;;;;;;5019598;28;20060;-76
2022/09/04 11:49:37;;;;;;;10.15;3.00;;;24.80;90.50;;;;;;5020708;28;20060;-75
2022/09/04 11:52:50;;;;;;;12.80;2.38;;;25.00;90.70;;;;;;5020545;28;20449;-79
2022/09/04 11:55:32;;;;;;;12.25;2.38;;;24.90;89.40;;;;;;5012700;28;20361;-81
2022/09/04 11:58:21;;;;;;;15.73;3.00;;;24.90;90.00;;;;;;5020974;28;20042;-77
2022/09/04 12:01:16;;;;;;;12.52;3.00;;;24.80;90.20;;;;;;5037071;28;20053;-77
2022/09/04 12:03:53;;;;;;;12.32;2.50;;;24.80;90.20;;;;;;5037628;28;20045;-77
2022/09/04 12:06:53;;;;;;;15.30;3.13;;;24.80;90.60;;;;;;5037386;28;20394;-80
2022/09/04 12:10:02;;;;;;;14.45;2.40;;;25.30;90.60;;;;;;5037333;28;20053;-73
2022/09/04 12:12:56;;;;;;;16.13;2.70;;;24.70;90.50;;;;;;5037670;28;20354;-78
2022/09/04 12:15:39;;;;;;;14.27;2.50;;;25.00;90.50;;;;;;5002796;28;20502;-71
2022/09/04 12:18:40;;;;;;;16.00;2.85;;;24.70;90.50;;;;;;5037116;28;20095;-78
2022/09/04 12:21:24;;;;;;;15.30;3.85;;;24.70;90.50;;;;;;4967479;28;20042;-73
2022/09/04 12:24:10;;;;;;;10.43;2.33;;;24.70;90.40;;;;;;5037545;28;20057;-76
2022/09/04 12:26:57;;;;;;;12.32;2.67;;;24.70;90.60;;;;;;5035998;28;20045;-71
2022/09/04 12:29:38;;;;;;;14.75;2.65;;;24.70;90.00;;;;;;5019841;28;20495;-76
2022/09/04 12:32:24;;;;;;;14.63;2.60;;;24.80;90.30;;;;;;5020150;28;20340;-73
2022/09/04 12:35:10;;;;;;;12.70;2.45;;;24.90;90.20;;;;;;5035882;28;20483;-74
2022/09/04 12:37:59;;;;;;;11.13;2.30;;;25.00;88.20;;;;;;5036761;28;20352;-73
2022/09/04 12:40:29;;;;;;;10.48;2.38;;;25.00;88.90;;;;;;5036136;28;20045;-72
2022/09/04 12:43:15;;;;;;;15.45;2.80;;;25.10;89.00;;;;;;5035907;28;20478;-75
2022/09/04 12:45:57;;;;;;;10.65;2.47;;;25.20;88.90;;;;;;5036804;28;20052;-76
2022/09/04 12:48:34;;;;;;;;;;;25.40;87.40;;;;;;5034957;28;20049;-73
2022/09/04 12:51:24;;;;;;;10.55;2.35;;;23.40;84.50;;;;;;5036579;28;19921;-74
2022/09/04 12:54:25;;;;;;;12.10;2.50;;;25.60;87.50;;;;;;5035499;28;20060;-70
2022/09/04 12:57:32;;;;;;;9.70;2.90;;;25.70;86.40;;;;;;5035760;28;20487;-71
2022/09/04 13:00:09;;;;;;;;;;;25.70;87.20;;;;;;5036292;28;20045;-74
2022/09/04 13:02:43;;;;;;;8.65;2.35;;;25.80;85.60;;;;;;5035974;28;19921;-77
2022/09/04 13:05:53;;;;;;;12.77;2.63;;;25.70;86.70;;;;;;5036552;28;20041;-79
2022/09/04 13:08:42;;;;;;;11.88;2.83;;;25.60;85.40;;;;;;5035295;28;20041;-76
2022/09/04 13:11:39;;;;;;;13.82;2.83;;;25.70;86.30;;;;;;5036204;28;20056;-75
2022/09/04 13:14:36;;;;;;;7.80;2.63;;;25.80;86.40;;;;;;5034182;28;20056;-76
2022/09/04 13:17:40;;;;;;;9.95;2.50;;;25.90;85.60;;;;;;5035233;28;20068;-80
2022/09/04 13:20:43;;;;;;;11.30;2.40;;;26.00;84.30;;;;;;5035551;28;20045;-73
2022/09/04 13:23:34;;;;;;;8.98;2.28;;;26.10;83.90;;;;;;5036249;28;20468;-75
2022/09/04 13:26:29;;;;;;;11.13;2.65;;;26.10;85.80;;;;;;5036077;28;20365;-73
2022/09/04 13:29:34;;;;;;;15.35;2.70;;;26.40;85.30;;;;;;5035424;28;20049;-74
2022/09/04 13:32:21;;;;;;;13.60;2.67;;;26.40;85.00;;;;;;5035780;28;20475;-75
2022/09/04 13:35:30;;;;;;;13.45;2.60;;;26.60;85.50;;;;;;5033834;28;20045;-73
2022/09/04 13:38:30;;;;;;;11.60;2.70;;;26.50;83.00;;;;;;4956545;28;20054;-73
2022/09/04 13:41:40;;;;;;;13.70;2.97;;;26.40;85.10;;;;;;5054991;28;20364;-75
2022/09/04 13:44:30;;;;;;;13.30;2.88;;;26.40;85.30;;;;;;5002194;28;20044;-74
2022/09/04 13:47:03;;;;;;;11.93;2.70;;;26.30;84.90;;;;;;5052505;28;20064;-74
2022/09/04 13:49:39;;;;;;;11.02;3.00;;;26.30;85.30;;;;;;5055280;28;20072;-73
2022/09/04 13:52:15;;;;;;;13.10;2.60;;;26.10;84.60;;;;;;5055007;28;20051;-73
2022/09/04 13:54:52;;;;;;;14.80;2.80;;;25.90;85.70;;;;;;5054568;28;20049;-75
2022/09/04 13:57:26;;;;;;;14.52;2.80;;;25.70;86.50;;;;;;5054505;28;20056;-74
2022/09/04 13:59:59;;;;;;;12.45;3.08;;;25.70;86.70;;;;;;5053872;28;20471;-74
2022/09/04 14:02:27;;;;;;;13.65;2.90;;;25.80;86.90;;;;;;5054758;28;20045;-73
2022/09/04 14:05:05;;;;;;;11.48;2.92;;;26.00;87.50;;;;;;5049685;28;20040;-77
2022/09/04 14:07:50;;;;;;;10.65;2.58;;;26.30;85.40;;;;;;5052285;28;20041;-77
2022/09/04 14:10:29;;;;;;;13.38;2.55;;;26.20;85.90;;;;;;5054850;28;20048;-77
2022/09/04 14:13:12;;;;;;;10.87;2.67;;;26.10;85.70;;;;;;5055187;28;20037;-78
2022/09/04 14:16:02;;;;;;;13.02;2.97;;;26.00;85.30;;;;;;5054409;28;20275;-77
2022/09/04 14:19:02;;;;;;;12.55;2.85;;;26.00;85.10;;;;;;5054094;28;20051;-75